Time;durP1;ratioP1;P1;durP2;ratioP2;P2;SDS_P1;SDS_P2;PMS_P1;PMS_P2;Temp;Humidity;BMP_temperature;BMP_pressure;BME280_temperature;BME280_humidity;BME280_pressure;Samples;Min_cycle;Max_cycle;Signal;HPM_P1;HPM_P2
2022/11/22 00:01:00;;;;;;;2.87;0.60;;;;;;;3.62;64.52;98211.44;10135388;29;20205;-84
2022/11/22 00:06:22;;;;;;;3.40;0.63;;;;;;;3.42;65.40;98205.50;10144573;29;20201;-83
2022/11/22 00:11:45;;;;;;;2.07;0.60;;;;;;;3.26;66.52;98212.88;10112915;29;20658;-84
2022/11/22 00:17:07;;;;;;;1.43;0.40;;;;;;;3.46;64.59;98200.09;10126183;29;20248;-84
2022/11/22 00:22:31;;;;;;;0.57;0.30;;;;;;;3.30;65.55;98205.44;10139440;29;20209;-85
2022/11/22 00:27:53;;;;;;;2.13;0.40;;;;;;;3.34;65.30;98205.59;10120268;29;20205;-83
2022/11/22 00:33:15;;;;;;;2.00;0.47;;;;;;;3.19;65.90;98184.72;10109775;29;20488;-84
2022/11/22 00:38:37;;;;;;;3.90;0.40;;;;;;;3.40;65.42;98179.19;10125414;29;20229;-83
2022/11/22 00:43:59;;;;;;;1.07;0.40;;;;;;;3.64;64.33;98156.19;10138774;29;20225;-84
2022/11/22 00:49:21;;;;;;;2.03;0.30;;;;;;;3.29;65.47;98167.66;10138686;29;20233;-84
2022/11/22 00:54:44;;;;;;;2.07;0.57;;;;;;;3.67;64.24;98156.31;10108648;29;20494;-84
2022/11/22 01:00:07;;;;;;;2.13;0.50;;;;;;;3.65;64.82;98172.56;10124291;29;20583;-84
2022/11/22 01:05:29;;;;;;;1.07;0.43;;;;;;;3.72;64.83;98172.00;10125295;29;20232;-84
2022/11/22 01:10:59;;;;;;;1.03;0.40;;;;;;;3.76;64.33;98170.19;10108640;29;20209;-84
2022/11/22 01:16:21;;;;;;;2.33;0.40;;;;;;;3.87;64.28;98163.03;10121538;29;20217;-84
2022/11/22 01:21:43;;;;;;;0.73;0.50;;;;;;;4.14;63.74;98164.38;10124476;29;20201;-83
2022/11/22 01:27:05;;;;;;;0.70;0.33;;;;;;;4.18;63.78;98165.31;10115392;29;20197;-84
2022/11/22 01:32:27;;;;;;;1.83;0.40;;;;;;;3.91;64.47;98172.34;10141320;29;20205;-84
2022/11/22 01:37:49;;;;;;;1.47;0.50;;;;;;;3.90;65.85;98170.72;10111498;29;20642;-84
2022/11/22 01:43:17;;;;;;;1.53;0.50;;;;;;;3.67;68.37;98183.38;10138090;29;20484;-84
2022/11/22 01:48:50;;;;;;;6.03;1.03;;;;;;;3.44;70.51;98180.94;10136992;29;20229;-83
2022/11/22 01:54:15;;;;;;;2.67;0.87;;;;;;;4.24;67.51;98185.41;10136736;29;20201;-84
2022/11/22 01:59:39;;;;;;;1.13;0.70;;;;;;;4.21;67.25;98169.34;10135703;29;20277;-84
2022/11/22 02:05:05;;;;;;;1.80;0.60;;;;;;;4.13;67.48;98197.00;10125789;29;20521;-83
2022/11/22 02:10:28;;;;;;;2.77;0.70;;;;;;;3.43;70.81;98203.53;10121805;29;20288;-83
2022/11/22 02:15:51;;;;;;;2.93;0.60;;;;;;;3.95;68.54;98192.75;10118419;29;20269;-84
2022/11/22 02:21:13;;;;;;;2.50;1.10;;;;;;;4.14;68.32;98198.63;10111221;29;20222;-82
2022/11/22 02:26:36;;;;;;;4.67;0.80;;;;;;;3.76;68.97;98207.22;10095566;29;21091;-81
2022/11/22 02:31:58;;;;;;;0.70;0.53;;;;;;;4.00;68.89;98208.47;10088494;29;20241;-81
2022/11/22 02:37:24;;;;;;;3.00;0.97;;;;;;;3.95;68.82;98212.28;10074124;29;20711;-81
2022/11/22 02:42:48;;;;;;;2.33;0.80;;;;;;;4.15;68.20;98221.75;10068441;29;20791;-82
2022/11/22 02:48:13;;;;;;;5.80;1.33;;;;;;;3.87;68.94;98221.53;10123474;29;20630;-81
2022/11/22 02:53:35;;;;;;;4.20;1.40;;;;;;;4.50;66.75;98234.16;10105334;29;20225;-81
2022/11/22 02:58:57;;;;;;;2.60;0.83;;;;;;;4.12;67.86;98231.63;10133233;29;20252;-82
2022/11/22 03:04:25;;;;;;;1.20;1.00;;;;;;;3.67;69.44;98239.09;10122787;29;20351;-82
2022/11/22 03:09:47;;;;;;;2.90;0.80;;;;;;;4.22;68.46;98246.28;10134282;29;20265;-80
2022/11/22 03:15:10;;;;;;;3.37;1.30;;;;;;;4.69;66.25;98238.34;10118330;29;20201;-81
2022/11/22 03:20:32;;;;;;;1.83;1.63;;;;;;;4.12;67.75;98250.31;10105919;29;20290;-80
2022/11/22 03:25:54;;;;;;;3.30;1.20;;;;;;;4.36;67.67;98252.34;10129084;29;20221;-81
2022/11/22 03:31:16;;;;;;;5.47;1.37;;;;;;;4.36;67.44;98258.75;10137529;29;20257;-81
2022/11/22 03:36:38;;;;;;;5.27;1.70;;;;;;;4.15;67.62;98267.19;10156602;29;20196;-80
2022/11/22 03:42:00;;;;;;;3.23;1.00;;;;;;;4.56;66.89;98281.34;10094363;29;20206;-81
2022/11/22 03:47:22;;;;;;;6.70;1.93;;;;;;;4.29;67.43;98288.38;10102835;29;20233;-82
2022/11/22 03:52:44;;;;;;;2.77;1.33;;;;;;;4.40;67.59;98283.97;10113433;29;20267;-82
2022/11/22 03:58:07;;;;;;;2.07;0.97;;;;;;;4.01;68.11;98286.16;10107047;29;20541;-82
2022/11/22 04:03:29;;;;;;;4.13;1.17;;;;;;;4.36;67.82;98294.19;10109326;29;20200;-82
2022/11/22 04:08:51;;;;;;;4.50;1.67;;;;;;;4.34;67.26;98299.28;10101492;29;20201;-82
2022/11/22 04:21:32;;;;;;;8.33;1.40;;;;;;;4.43;66.63;98297.25;10138118;29;20232;-82
2022/11/22 04:25:44;;;;;;;5.10;1.27;;;;;;;4.65;65.75;98313.56;10100608;29;20683;-82
2022/11/22 04:36:47;;;;;;;7.60;1.13;;;;;;;4.41;65.84;98314.31;10146685;29;20228;-81
2022/11/22 04:47:59;;;;;;;6.43;1.50;;;;;;;4.50;65.93;98317.81;10109221;29;20236;-82
2022/11/22 04:53:21;;;;;;;6.37;1.37;;;;;;;4.83;64.39;98330.94;10115308;29;20327;-84
2022/11/22 04:58:43;;;;;;;4.30;1.10;;;;;;;4.23;66.41;98331.56;10109796;29;20308;-82
2022/11/22 05:04:05;;;;;;;9.70;1.20;;;;;;;4.64;64.87;98325.06;10122906;29;20232;-82
2022/11/22 05:09:27;;;;;;;6.53;1.40;;;;;;;4.33;65.50;98328.38;10103743;29;20272;-83
2022/11/22 05:14:49;;;;;;;8.27;1.37;;;;;;;4.40;65.77;98317.44;10092670;29;20711;-82
2022/11/22 05:20:12;;;;;;;4.23;1.13;;;;;;;4.18;65.59;98320.63;10100555;29;20225;-83
2022/11/22 05:25:34;;;;;;;5.13;1.10;;;;;;;4.44;64.95;98319.22;10099954;29;20619;-81
2022/11/22 05:30:56;;;;;;;6.90;1.47;;;;;;;3.91;67.19;98320.03;10121773;29;20229;-81
2022/11/22 05:36:19;;;;;;;6.37;1.37;;;;;;;4.54;64.73;98320.75;10115258;29;20224;-83
2022/11/22 05:41:54;;;;;;;6.73;1.03;;;;;;;3.75;67.04;98328.19;10113001;29;20274;-83
2022/11/22 05:47:16;;;;;;;5.37;1.00;;;;;;;3.71;67.61;98337.53;10104771;29;20229;-83
2022/11/22 05:52:39;;;;;;;3.03;0.80;;;;;;;3.94;66.45;98336.09;10106951;29;20364;-83
2022/11/22 05:58:01;;;;;;;6.30;1.10;;;;;;;3.78;67.04;98338.66;10100435;29;20288;-81
2022/11/22 06:03:23;;;;;;;5.57;0.90;;;;;;;3.42;67.91;98346.75;10123153;29;20241;-82
2022/11/22 06:08:46;;;;;;;6.63;1.10;;;;;;;3.52;67.21;98362.25;10101031;29;20276;-82
2022/11/22 06:14:09;;;;;;;4.90;1.03;;;;;;;3.47;67.59;98371.59;10114044;29;20577;-84
2022/11/22 06:19:31;;;;;;;9.43;1.47;;;;;;;3.69;66.72;98381.63;10142624;29;20233;-82
2022/11/22 06:24:53;;;;;;;6.80;1.23;;;;;;;3.66;66.76;98385.09;10141361;29;20197;-85
2022/11/22 06:30:15;;;;;;;15.87;7.20;;;;;;;3.53;66.08;98384.19;10119350;29;20213;-85
2022/11/22 06:35:38;;;;;;;5.03;1.33;;;;;;;3.80;65.34;98382.91;10130053;29;20247;-84
2022/11/22 06:41:05;;;;;;;5.73;1.13;;;;;;;3.65;65.80;98386.25;10131488;29;20225;-83
2022/11/22 06:46:27;;;;;;;6.20;1.10;;;;;;;3.38;65.91;98398.69;10139430;29;20231;-83
2022/11/22 06:51:49;;;;;;;8.90;1.40;;;;;;;3.43;65.62;98401.25;10143213;29;20216;-85
2022/11/22 06:57:13;;;;;;;4.73;1.20;;;;;;;3.62;64.75;98403.63;10148636;29;20209;-85
2022/11/22 07:02:35;;;;;;;7.77;1.57;;;;;;;3.31;66.00;98410.31;10144506;29;20259;-84
2022/11/22 07:07:57;;;;;;;8.57;1.60;;;;;;;2.83;66.32;98407.88;10137088;29;20197;-85
2022/11/22 07:13:19;;;;;;;5.40;1.20;;;;;;;3.29;65.96;98418.22;10151034;29;20556;-86
2022/11/22 07:18:41;;;;;;;8.70;1.67;;;;;;;3.42;64.54;98427.50;10166033;29;20240;-85
2022/11/22 07:24:07;;;;;;;6.47;1.33;;;;;;;3.44;63.94;98430.75;10153628;29;20252;-85
2022/11/22 07:29:29;;;;;;;5.10;1.00;;;;;;;2.99;64.89;98433.22;10111140;29;20204;-87
2022/11/22 07:34:52;;;;;;;4.13;0.97;;;;;;;3.35;63.19;98441.94;10144952;29;20253;-86
2022/11/22 07:40:14;;;;;;;9.00;0.97;;;;;;;3.18;63.21;98443.94;10132906;29;20228;-86
2022/11/22 07:45:36;;;;;;;6.40;1.47;;;;;;;3.31;62.47;98438.16;10147740;29;20261;-84
2022/11/22 07:51:05;;;;;;;6.17;0.93;;;;;;;3.51;61.93;98438.59;10144572;29;20197;-86
2022/11/22 07:56:27;;;;;;;7.90;1.70;;;;;;;3.37;62.01;98434.06;10137492;29;20260;-84
2022/11/22 08:01:49;;;;;;;7.33;1.67;;;;;;;3.43;61.25;98440.25;10123946;29;20272;-85
2022/11/22 08:07:14;;;;;;;6.57;2.17;;;;;;;3.42;61.29;98433.06;10110987;29;20510;-85
2022/11/22 08:12:36;;;;;;;6.80;2.10;;;;;;;3.90;60.03;98432.66;10138611;29;20221;-84
2022/11/22 08:17:58;;;;;;;7.53;1.30;;;;;;;3.80;59.80;98438.63;10106806;29;20304;-84
2022/11/22 08:23:20;;;;;;;8.60;1.43;;;;;;;3.43;61.49;98431.88;10143189;29;20233;-85
2022/11/22 08:28:43;;;;;;;5.37;1.87;;;;;;;3.81;60.10;98435.50;10142698;29;20676;-85
2022/11/22 08:34:05;;;;;;;5.70;1.10;;;;;;;3.85;59.90;98435.63;10117169;29;20534;-85
2022/11/22 08:39:27;;;;;;;7.40;1.00;;;;;;;3.51;60.37;98446.94;10124372;29;20228;-85
2022/11/22 08:44:50;;;;;;;6.93;0.90;;;;;;;3.77;59.29;98444.88;10148731;29;20205;-83
2022/11/22 08:50:12;;;;;;;14.50;4.40;;;;;;;4.38;57.82;98445.28;10156939;29;20705;-84
2022/11/22 08:55:34;;;;;;;7.73;1.40;;;;;;;4.04;58.76;98446.34;10140915;29;20288;-84
2022/11/22 09:00:57;;;;;;;4.70;1.10;;;;;;;3.77;58.73;98461.59;10148697;29;20330;-85
2022/11/22 09:06:19;;;;;;;4.23;1.03;;;;;;;4.16;57.62;98465.94;10151625;29;20240;-84
2022/11/22 09:11:42;;;;;;;5.57;0.87;;;;;;;4.07;57.96;98481.94;10132063;29;20278;-83
2022/11/22 09:17:05;;;;;;;7.43;1.10;;;;;;;4.16;57.80;98480.72;10135814;29;20209;-84
2022/11/22 09:22:27;;;;;;;6.43;1.17;;;;;;;4.60;56.30;98483.16;10133037;29;20244;-84
2022/11/22 09:27:49;;;;;;;5.43;1.00;;;;;;;3.81;57.11;98493.22;10178187;29;20244;-86
2022/11/22 09:33:11;;;;;;;5.07;0.60;;;;;;;3.97;55.83;98494.25;10166709;29;20201;-84
2022/11/22 09:38:33;;;;;;;2.83;0.40;;;;;;;4.70;54.65;98482.75;10145159;29;20208;-84
2022/11/22 09:44:11;;;;;;;4.23;0.87;;;;;;;4.74;54.54;98489.28;10171579;29;20200;-84
2022/11/22 09:49:57;;;;;;;4.00;0.73;;;;;;;4.78;54.65;98487.44;10153863;29;20316;-85
2022/11/22 09:55:46;;;;;;;4.57;0.87;;;;;;;4.41;55.27;98495.63;10146567;29;20201;-85
2022/11/22 10:01:41;;;;;;;6.87;0.80;;;;;;;4.64;55.03;98484.13;10129249;29;20312;-85
2022/11/22 10:07:12;;;;;;;5.70;1.43;;;;;;;4.59;54.89;98498.28;10152819;29;20609;-84
2022/11/22 10:12:44;;;;;;;4.87;0.70;;;;;;;4.52;54.40;98484.88;10117553;29;20205;-84
2022/11/22 10:18:17;;;;;;;3.63;0.80;;;;;;;4.75;54.52;98491.72;10139299;29;20205;-86
2022/11/22 10:23:41;;;;;;;2.80;0.70;;;;;;;4.68;54.31;98494.25;10077633;29;20202;-85
2022/11/22 10:29:22;;;;;;;4.07;1.03;;;;;;;4.56;54.93;98499.78;10158205;29;20201;-84
2022/11/22 10:35:07;;;;;;;4.63;0.90;;;;;;;5.09;53.41;98481.41;10148889;29;20198;-85
2022/11/22 10:40:38;;;;;;;2.93;0.67;;;;;;;4.46;54.99;98489.81;10133128;29;20267;-83
2022/11/22 10:46:13;;;;;;;4.23;1.17;;;;;;;4.58;54.87;98480.72;10135012;29;20595;-84
2022/11/22 10:52:15;;;;;;;4.60;0.60;;;;;;;4.58;54.89;98479.91;10091470;29;20240;-87
2022/11/22 10:57:47;;;;;;;7.53;1.60;;;;;;;4.82;54.92;98480.03;10129503;29;20599;-84
2022/11/22 11:03:24;;;;;;;7.67;1.00;;;;;;;4.95;54.50;98472.50;10103712;29;20225;-84
2022/11/22 11:08:58;;;;;;;3.83;0.97;;;;;;;4.92;54.69;98459.25;10103713;29;20182;-84
2022/11/22 11:14:23;;;;;;;3.53;0.57;;;;;;;5.20;54.01;98454.69;10137112;29;20200;-85
2022/11/22 11:19:47;;;;;;;4.33;0.50;;;;;;;4.91;54.16;98438.88;10131846;29;20268;-84
2022/11/22 11:25:31;;;;;;;2.77;0.80;;;;;;;4.87;54.12;98433.16;10136037;29;20197;-86
2022/11/22 11:31:07;;;;;;;4.37;0.70;;;;;;;4.81;54.05;98428.97;10161814;29;20260;-85
2022/11/22 11:36:30;;;;;;;2.93;0.40;;;;;;;4.61;54.95;98417.81;10167959;29;20193;-84
2022/11/22 11:41:53;;;;;;;3.43;0.70;;;;;;;5.22;53.53;98413.28;10153512;29;20216;-84
2022/11/22 11:47:30;;;;;;;5.40;0.80;;;;;;;5.04;53.87;98420.19;10165918;29;20506;-84
2022/11/22 11:52:56;;;;;;;2.93;1.03;;;;;;;4.60;53.59;98411.44;10167018;29;20482;-85
2022/11/22 11:58:20;;;;;;;3.67;0.43;;;;;;;5.08;52.98;98409.97;10147558;29;20205;-85
2022/11/22 12:03:50;;;;;;;2.17;0.67;;;;;;;5.44;52.22;98407.25;10160870;29;20193;-86
2022/11/22 12:09:26;;;;;;;1.07;0.23;;;;;;;5.00;53.85;98406.09;10127791;29;20197;-85
2022/11/22 12:14:53;;;;;;;3.90;0.73;;;;;;;5.49;52.50;98414.59;10139241;29;20590;-86
2022/11/22 12:20:32;;;;;;;3.70;0.40;;;;;;;4.89;54.03;98416.88;10149179;29;20279;-83
2022/11/22 12:25:55;;;;;;;3.63;0.50;;;;;;;4.83;53.49;98431.41;10162337;29;20260;-85
2022/11/22 12:31:31;;;;;;;1.40;0.40;;;;;;;5.41;52.34;98419.13;10136860;29;20204;-86
2022/11/22 12:36:59;;;;;;;1.97;0.50;;;;;;;5.56;51.41;98418.44;10150039;29;20225;-86
2022/11/22 12:42:33;;;;;;;2.50;0.33;;;;;;;5.97;50.46;98394.19;10148062;29;20228;-84
2022/11/22 12:48:04;;;;;;;1.60;0.33;;;;;;;5.08;52.10;98412.75;10140190;29;20244;-86
2022/11/22 12:53:35;;;;;;;1.57;0.30;;;;;;;5.45;51.59;98416.44;10152785;29;20200;-84
2022/11/22 12:59:07;;;;;;;1.30;0.30;;;;;;;5.70;51.04;98425.66;10109508;29;20281;-85
2022/11/22 13:04:38;;;;;;;2.13;0.43;;;;;;;5.36;51.49;98427.75;10136244;29;20690;-84
2022/11/22 13:10:13;;;;;;;1.80;0.40;;;;;;;5.74;51.36;98424.63;10121451;29;20510;-84
2022/11/22 13:15:38;;;;;;;0.97;0.30;;;;;;;5.72;51.11;98426.13;10154950;29;20553;-83
2022/11/22 13:21:22;;;;;;;2.23;0.33;;;;;;;5.36;51.89;98427.75;10177068;29;20258;-81
2022/11/22 13:27:01;;;;;;;2.30;0.23;;;;;;;5.63;51.75;98419.84;10135713;29;20204;-84
2022/11/22 13:32:29;;;;;;;1.03;0.30;;;;;;;4.92;53.20;98406.19;10133167;29;20222;-85
2022/11/22 13:38:05;;;;;;;1.87;0.40;;;;;;;5.24;53.16;98414.53;10116778;29;20261;-85
2022/11/22 13:43:42;;;;;;;1.07;0.20;;;;;;;5.12;53.02;98408.91;10140575;29;20603;-85
2022/11/22 13:49:33;;;;;;;2.20;0.20;;;;;;;5.01;53.40;98415.28;10131681;29;20742;-83
2022/11/22 13:54:55;;;;;;;3.13;0.50;;;;;;;5.65;51.96;98418.31;10137818;29;20237;-84
2022/11/22 14:00:18;;;;;;;0.70;0.30;;;;;;;5.78;52.12;98413.53;10100464;29;20210;-84
2022/11/22 14:05:46;;;;;;;6.17;3.30;;;;;;;5.46;52.27;98409.69;10134242;29;20206;-84
2022/11/22 14:11:38;;;;;;;1.53;0.87;;;;;;;5.85;51.76;98410.97;10127992;29;20249;-85
2022/11/22 14:17:28;;;;;;;2.93;0.60;;;;;;;5.82;51.69;98401.31;10130899;29;20503;-83
2022/11/22 14:22:58;;;;;;;2.50;0.50;;;;;;;5.66;52.08;98402.34;10143415;29;20225;-83
2022/11/22 14:28:44;;;;;;;0.93;0.33;;;;;;;4.91;53.75;98404.56;10139139;29;20253;-82
2022/11/22 14:34:23;;;;;;;2.10;0.40;;;;;;;5.32;53.47;98420.38;10130918;29;20200;-83
2022/11/22 14:39:52;;;;;;;3.10;0.63;;;;;;;5.66;52.53;98419.13;10140819;29;20225;-85
2022/11/22 14:45:20;;;;;;;0.87;0.40;;;;;;;5.77;52.00;98409.09;10137937;29;20221;-84
2022/11/22 14:50:47;;;;;;;1.30;0.70;;;;;;;5.50;52.54;98413.44;10127648;29;20229;-84
2022/11/22 14:56:31;;;;;;;2.07;0.10;;;;;;;4.67;55.34;98405.31;10125992;29;20193;-86
2022/11/22 15:02:02;;;;;;;2.33;0.20;;;;;;;5.29;54.00;98393.97;10128753;29;20212;-86
2022/11/22 15:08:13;;;;;;;1.43;0.30;;;;;;;5.34;53.56;98399.34;10137317;29;20260;-85
2022/11/22 15:14:00;;;;;;;2.00;0.20;;;;;;;5.34;54.38;98412.47;10136231;29;20217;-83
2022/11/22 15:19:36;;;;;;;1.07;0.47;;;;;;;5.22;54.42;98407.69;10124205;29;20682;-82
2022/11/22 15:24:58;;;;;;;1.93;0.30;;;;;;;5.24;54.20;98397.00;10131279;29;20206;-81
2022/11/22 15:30:24;;;;;;;1.67;0.20;;;;;;;5.24;55.21;98417.34;10151524;29;20205;-82
2022/11/22 15:36:05;;;;;;;0.80;0.27;;;;;;;5.12;55.68;98425.66;10135529;29;20253;-81
2022/11/22 15:41:31;;;;;;;0.53;0.20;;;;;;;5.46;54.49;98404.94;10109908;29;20268;-82
2022/11/22 15:46:53;;;;;;;1.10;0.20;;;;;;;5.15;55.25;98415.81;10155516;29;20236;-83
2022/11/22 15:52:26;;;;;;;1.53;0.60;;;;;;;5.00;56.03;98413.66;10120828;29;20209;-82
2022/11/22 15:57:53;;;;;;;2.40;0.30;;;;;;;5.05;55.76;98411.47;10138761;29;20284;-82
2022/11/22 16:03:23;;;;;;;0.50;0.20;;;;;;;4.93;56.34;98424.59;10131058;29;20308;-84
2022/11/22 16:08:50;;;;;;;2.87;0.60;;;;;;;4.88;56.60;98423.63;10129723;29;20209;-83
2022/11/22 16:14:45;;;;;;;1.60;0.40;;;;;;;5.06;56.92;98417.88;10123321;29;20228;-84
2022/11/22 16:20:23;;;;;;;2.13;0.47;;;;;;;4.81;56.94;98434.56;10127948;29;20252;-81
2022/11/22 16:25:47;;;;;;;2.27;0.70;;;;;;;4.70;58.45;98443.69;10110166;29;20301;-81
2022/11/22 16:31:23;;;;;;;1.73;0.40;;;;;;;4.95;57.68;98448.22;10118204;29;20550;-80
2022/11/22 16:36:45;;;;;;;1.33;0.30;;;;;;;4.71;58.57;98451.72;10136464;29;20618;-83
2022/11/22 16:42:08;;;;;;;1.20;0.20;;;;;;;4.79;58.87;98441.63;10129213;29;20615;-80
2022/11/22 16:47:30;;;;;;;0.40;0.20;;;;;;;4.73;59.29;98457.75;10125597;29;20256;-82
2022/11/22 16:52:52;;;;;;;1.33;0.30;;;;;;;4.29;61.38;98466.84;10117963;29;20228;-81
2022/11/22 16:58:20;;;;;;;3.10;0.40;;;;;;;4.39;61.84;98474.81;10131178;29;20280;-82
2022/11/22 17:03:44;;;;;;;1.00;0.23;;;;;;;4.43;62.35;98473.78;10124445;29;20252;-81
2022/11/22 17:09:07;;;;;;;1.20;0.40;;;;;;;4.56;62.33;98485.84;10120519;29;20228;-80
2022/11/22 17:14:30;;;;;;;2.03;0.40;;;;;;;4.63;62.32;98491.66;10128247;29;20883;-82
2022/11/22 17:19:52;;;;;;;0.50;0.30;;;;;;;4.60;62.80;98489.56;10123665;29;20247;-81
2022/11/22 17:25:14;;;;;;;0.83;0.33;;;;;;;4.55;63.57;98498.16;10105318;29;20254;-84
2022/11/22 17:30:37;;;;;;;1.23;0.43;;;;;;;4.77;63.45;98489.41;10123595;29;20228;-85
2022/11/22 17:35:59;;;;;;;1.10;0.20;;;;;;;4.53;64.84;98503.25;10134226;29;20240;-83
2022/11/22 17:41:21;;;;;;;0.73;0.30;;;;;;;4.61;64.74;98505.13;10115194;29;20702;-81
2022/11/22 17:46:43;;;;;;;0.20;0.20;;;;;;;4.63;64.42;98511.19;10120537;29;20255;-81
2022/11/22 17:52:05;;;;;;;0.50;0.40;;;;;;;4.69;64.61;98525.78;10098216;29;20614;-81
2022/11/22 17:57:27;;;;;;;1.63;0.70;;;;;;;4.77;64.16;98522.91;10132831;29;20244;-80
2022/11/22 18:02:49;;;;;;;0.57;0.40;;;;;;;4.76;65.18;98524.06;10132475;29;20698;-82
2022/11/22 18:08:11;;;;;;;0.53;0.40;;;;;;;4.72;64.97;98537.06;10113712;29;20525;-83
2022/11/22 18:13:38;;;;;;;0.93;0.60;;;;;;;4.87;64.86;98528.06;10103869;29;20212;-81
2022/11/22 18:19:00;;;;;;;1.17;0.70;;;;;;;4.80;65.10;98525.03;10124804;29;20678;-81
2022/11/22 18:24:22;;;;;;;2.40;0.90;;;;;;;4.44;66.37;98530.41;10098221;29;20260;-83
2022/11/22 18:29:44;;;;;;;0.80;0.40;;;;;;;4.63;67.20;98538.28;10126229;29;20273;-79
2022/11/22 18:35:06;;;;;;;1.47;1.10;;;;;;;5.02;65.26;98539.75;10124979;29;20233;-79
2022/11/22 18:40:29;;;;;;;1.73;0.33;;;;;;;5.12;66.28;98547.72;10133818;29;20264;-80
2022/11/22 18:45:51;;;;;;;0.90;0.83;;;;;;;4.49;68.41;98549.69;10151058;29;20236;-81
2022/11/22 18:51:13;;;;;;;2.30;1.53;;;;;;;4.66;68.04;98544.00;10092737;29;20233;-79
2022/11/22 18:56:38;;;;;;;1.83;1.10;;;;;;;4.70;68.92;98549.75;10138012;29;20232;-79
2022/11/22 19:02:00;;;;;;;1.20;0.87;;;;;;;4.27;70.29;98548.06;10126721;29;20681;-80
2022/11/22 19:07:23;;;;;;;1.20;0.70;;;;;;;4.28;69.81;98560.84;10099068;29;20229;-79
2022/11/22 19:12:45;;;;;;;0.60;0.50;;;;;;;4.85;68.65;98563.09;10097307;29;20229;-78
2022/11/22 19:18:08;;;;;;;0.60;0.60;;;;;;;4.98;68.99;98561.19;10137353;29;20236;-80
2022/11/22 19:23:31;;;;;;;1.13;0.90;;;;;;;4.48;71.32;98559.22;10105282;29;20289;-79
2022/11/22 19:28:54;;;;;;;0.70;0.50;;;;;;;4.64;70.27;98563.06;10119016;29;20229;-81
2022/11/22 19:34:16;;;;;;;0.40;0.40;;;;;;;4.82;71.01;98558.19;10131955;29;20276;-79
2022/11/22 19:39:39;;;;;;;1.23;0.40;;;;;;;4.50;71.48;98554.13;10136270;29;20232;-81
2022/11/22 19:45:02;;;;;;;1.47;0.83;;;;;;;4.36;72.70;98556.34;10141050;29;20248;-79
2022/11/22 19:50:24;;;;;;;0.90;0.53;;;;;;;4.65;71.91;98553.53;10126166;29;20328;-80
2022/11/22 19:55:46;;;;;;;0.80;0.40;;;;;;;4.53;71.56;98550.66;10118463;29;20201;-80
2022/11/22 20:01:10;;;;;;;0.43;0.40;;;;;;;4.84;72.12;98561.44;10105662;29;20257;-79
2022/11/22 20:06:33;;;;;;;0.63;0.30;;;;;;;4.37;73.40;98566.34;10126990;29;20205;-81
2022/11/22 20:11:55;;;;;;;0.37;0.33;;;;;;;4.47;72.97;98566.78;10102393;29;20249;-79
2022/11/22 20:17:19;;;;;;;0.90;0.37;;;;;;;4.44;72.75;98564.69;10125391;29;20239;-80
2022/11/22 20:22:41;;;;;;;0.30;0.30;;;;;;;4.41;73.03;98561.75;10116569;29;20247;-80
2022/11/22 20:28:03;;;;;;;1.07;0.40;;;;;;;4.53;72.47;98561.84;10148725;29;20237;-80
2022/11/22 20:33:25;;;;;;;1.10;0.63;;;;;;;4.58;71.86;98555.25;10125993;29;20197;-80
2022/11/22 20:38:48;;;;;;;0.97;0.40;;;;;;;4.46;71.58;98562.34;10136977;29;20297;-79
2022/11/22 20:44:12;;;;;;;0.40;0.30;;;;;;;4.66;70.76;98566.34;10126050;29;20248;-79
2022/11/22 20:49:34;;;;;;;3.27;0.60;;;;;;;4.71;69.75;98574.53;10109998;29;20303;-80
2022/11/22 20:54:56;;;;;;;3.27;2.53;;;;;;;5.04;69.02;98565.38;10140589;29;20602;-81
2022/11/22 21:00:18;;;;;;;1.87;0.90;;;;;;;4.72;69.41;98575.34;10127104;29;20630;-79
2022/11/22 21:05:44;;;;;;;0.70;0.50;;;;;;;5.12;67.70;98568.09;10111809;29;20281;-80
2022/11/22 21:11:14;;;;;;;0.67;0.50;;;;;;;5.11;66.97;98569.25;10105317;29;20240;-82
2022/11/22 21:16:36;;;;;;;1.77;0.60;;;;;;;5.19;66.80;98575.94;10126421;29;20294;-81
2022/11/22 21:22:01;;;;;;;2.43;0.53;;;;;;;5.28;67.54;98570.28;10106645;29;20782;-80
2022/11/22 21:27:23;;;;;;;1.63;0.50;;;;;;;5.28;65.88;98582.28;10135846;29;20280;-80
2022/11/22 21:32:45;;;;;;;2.00;1.03;;;;;;;5.40;65.59;98585.09;10137633;29;20205;-80
2022/11/22 21:38:07;;;;;;;1.73;0.80;;;;;;;5.18;65.75;98591.06;10137500;29;20294;-81
2022/11/22 21:43:29;;;;;;;3.80;1.07;;;;;;;5.19;66.88;98589.91;10133445;29;20224;-80
2022/11/22 21:48:54;;;;;;;4.80;1.30;;;;;;;5.34;65.78;98599.66;10132981;29;20304;-80
2022/11/22 21:54:17;;;;;;;3.47;0.97;;;;;;;5.30;65.68;98596.72;10134507;29;20591;-81
2022/11/22 21:59:39;;;;;;;2.07;0.70;;;;;;;5.45;65.48;98612.84;10120669;29;20216;-80
2022/11/22 22:05:01;;;;;;;1.07;0.53;;;;;;;5.25;66.72;98608.09;10107663;29;20237;-80
2022/11/22 22:10:23;;;;;;;2.93;0.43;;;;;;;5.60;65.03;98608.59;10107531;29;20216;-80
2022/11/22 22:15:46;;;;;;;1.67;0.57;;;;;;;5.27;65.92;98611.34;10120652;29;20237;-79
2022/11/22 22:21:09;;;;;;;1.63;0.63;;;;;;;5.35;65.93;98604.91;10123801;29;20201;-80
2022/11/22 22:26:31;;;;;;;4.40;0.40;;;;;;;5.16;66.99;98610.16;10126655;29;20581;-80
2022/11/22 22:31:53;;;;;;;1.13;0.50;;;;;;;5.15;66.27;98600.94;10144461;29;20198;-80
2022/11/22 22:37:15;;;;;;;5.57;0.77;;;;;;;5.28;66.17;98609.38;10127368;29;20209;-80
2022/11/22 22:42:37;;;;;;;2.00;0.60;;;;;;;5.12;66.65;98612.75;10123909;29;20632;-79
2022/11/22 22:47:59;;;;;;;4.10;0.40;;;;;;;5.13;66.88;98613.59;10118266;29;20236;-79
2022/11/22 22:53:22;;;;;;;3.43;0.40;;;;;;;5.00;67.17;98609.09;10151353;29;20258;-79
2022/11/22 22:58:44;;;;;;;3.50;0.50;;;;;;;5.19;66.93;98613.06;10142724;29;20237;-81
2022/11/22 23:04:06;;;;;;;4.47;0.47;;;;;;;5.17;68.02;98614.56;10123135;29;20280;-80
2022/11/22 23:09:28;;;;;;;4.07;0.70;;;;;;;4.82;69.25;98616.78;10142246;29;20555;-80
2022/11/22 23:14:50;;;;;;;4.83;0.63;;;;;;;4.82;69.75;98619.59;10142115;29;20201;-81
2022/11/22 23:20:12;;;;;;;2.50;0.60;;;;;;;4.77;69.93;98623.38;10141828;29;20225;-81
2022/11/22 23:25:35;;;;;;;2.03;0.60;;;;;;;4.95;69.43;98617.69;10128797;29;20229;-81
2022/11/22 23:31:11;;;;;;;4.60;0.60;;;;;;;4.89;70.15;98623.47;10142251;29;20547;-81
2022/11/22 23:36:33;;;;;;;2.03;0.50;;;;;;;4.87;70.05;98628.56;10127572;29;20205;-81
2022/11/22 23:41:55;;;;;;;1.67;0.47;;;;;;;4.68;70.95;98625.41;10141627;29;20564;-80
2022/11/22 23:47:17;;;;;;;5.77;0.70;;;;;;;4.91;70.77;98627.88;10141282;29;20237;-80
2022/11/22 23:52:39;;;;;;;3.60;0.90;;;;;;;5.09;69.73;98624.63;10140414;29;21065;-80
2022/11/22 23:58:01;;;;;;;4.40;0.83;;;;;;;5.01;70.30;98641.44;10118789;29;20217;-80
